首页
METAR-TAF:

METAR-TAF

机场 :

子午线, 密西西比州, 美国

纬度: 32-32-47N, 经度: 088-32-35W, 海拔: 96米

当前天气观测

该预报发布于46分钟前的23:56 UTC
风速3节,风向南转南东
温度 20°C
湿度 94%
气压 1012 hPa
能見度: 16.1公里
阴天层高于600英尺

METAR: KNMM 152356Z 16003KT 10SM OVC006 20/19 A2988 RMK AO2 RAE09 CIG 002V007 SLP128 T2 SET P0000 60036 T02000194 10206 20189 58013

时间: 19:42 (00:42 UTC)

预报

预报有效从15日的 23点(UTC)到 16日的 23点(UTC)
风速4节,风向多变
能見度: 6000
多云层高于700英尺, 积雨云.
阴天层高于2000英尺
小阵雨, 附近有雷暴
从 16日的 0200点(UTC)
风速4节,风向西转西南
能見度: 4800
阴天层高于500英尺
附近有阵雨, 轻雾
从 16日的 1200点(UTC)
风速8节,风向西北
能见度10公里或以上
阴天层高于300英尺
从 16日的 1400点(UTC)
风速12节,风向北转西北,有时为18节阵风
能见度10公里或以上
多云层高于800英尺
阴天层高于2500英尺
从 16日的 1600点(UTC)
风速12节,风向,有时为20节阵风
能見度: 1612
散云层高于3000英尺
多云层高于30000英尺

TAF: KNMM 1523/1623 VRB04KT 6000 -SHRA VCTS BKN007CB OVC020 651409 652305 QNH2986INS FM160200 25004KT 4800 VCSH BR OVC005 651409 652305 QNH2985INS FM161200 32008KT 9999 OVC003 621509 QNH2987INS FM161400 34012G18KT 9999 BKN008 OVC025 600000 510004 542409 543305 QNH2993INS FM161600 35012G20KT 9999 SCT030 BKN300 510004 542409 543305 QNH2996INS AUTOMATED SENSOR METWATCH 1605 TIL 1612 T17/1612Z T21/1620Z FN20037

超过4000个机场的气象观测和天气预报(METAR&TAF报告)。

可查询的气象台以黄色和红色小点在地图上表示。

将鼠标移到小点上方,可查看气象台名称。

然后点击查看天气观测和预报。

如需切换地图:点击带黑十字的绿色按钮放大地图;点击带横线的绿色按钮缩小地图;或者点击绿色箭头查看邻近地区的地图。


METAR-TAF: